SFC Newsletters

Refer to "Latest Club News" on the home page

Home The Club The Windsock Newsletter

Latest Metar/Taf

[source: ADDS]
METAR
FACT 220400Z 19011KT 9999 FEW015 14/11 Q1020 NOSIG =
TAF
TAF FACT 220400Z 2206/2312 19014KT 9999 FEW025 FM220900 17018KT 9999 FEW030 BECMG 2222/2224 20007KT FM230200 21006KT 9999 BKN020 PROB30 TEMPO 2303/2307 BKN008 FM230800 29011KT 9999 SCT030 TX22/2312Z TN11/2304Z =
SR / SS: 03:53 / 17:04 UTC (FASH 2017-10-22)

Quicklinks

Club Events Calendar
FASH Weather 7-Day Forecast